Time;durP1;ratioP1;P1;durP2;ratioP2;P2;SDS_P1;SDS_P2;PMS_P1;PMS_P2;Temp;Humidity;BMP_temperature;BMP_pressure;BME280_temperature;BME280_humidity;BME280_pressure;Samples;Min_cycle;Max_cycle;Signal;HPM_P1;HPM_P2
2022/01/18 00:02:24;;;;;;;34.55;22.23;;;5.90;99.90;;;;;;4945880;28;20259;-74
2022/01/18 00:05:14;;;;;;;30.88;19.73;;;5.90;99.90;;;;;;4953709;28;20240;-74
2022/01/18 00:08:00;;;;;;;32.85;21.10;;;5.90;99.90;;;;;;4948619;29;20228;-73
2022/01/18 00:10:47;;;;;;;27.95;20.45;;;5.90;99.90;;;;;;4956369;29;20208;-74
2022/01/18 00:13:40;;;;;;;33.35;20.75;;;5.80;99.90;;;;;;4951189;29;20675;-73
2022/01/18 00:16:31;;;;;;;28.55;19.30;;;5.80;99.90;;;;;;4972667;23;20709;-73
2022/01/18 00:19:17;;;;;;;33.50;21.13;;;5.80;99.90;;;;;;4950346;29;20693;-73
2022/01/18 00:22:11;;;;;;;38.00;21.05;;;5.70;99.90;;;;;;4952649;28;20212;-73
2022/01/18 00:24:58;;;;;;;35.30;22.60;;;5.60;99.90;;;;;;4950437;29;20226;-73
2022/01/18 00:27:44;;;;;;;34.80;22.58;;;5.70;99.90;;;;;;4932125;29;20265;-73
2022/01/18 00:30:51;;;;;;;41.80;23.20;;;5.70;99.90;;;;;;4935748;29;20694;-73
2022/01/18 00:33:49;;;;;;;37.70;24.13;;;5.70;99.90;;;;;;4933967;29;20578;-73
2022/01/18 00:36:41;;;;;;;34.90;24.20;;;5.70;99.90;;;;;;4927593;29;20248;-72
2022/01/18 00:39:29;;;;;;;40.35;25.17;;;5.70;99.90;;;;;;4935164;29;20276;-73
2022/01/18 00:42:15;;;;;;;38.20;23.83;;;5.80;99.90;;;;;;4936515;29;20208;-73
2022/01/18 00:45:00;;;;;;;35.17;22.92;;;5.80;99.90;;;;;;4921236;29;20217;-73
2022/01/18 00:47:48;;;;;;;31.47;21.20;;;5.80;99.90;;;;;;4928722;29;20349;-73
2022/01/18 00:50:34;;;;;;;36.35;21.92;;;5.80;99.90;;;;;;4933551;29;20538;-73
2022/01/18 00:53:21;;;;;;;30.65;20.02;;;5.90;99.90;;;;;;4930433;29;20213;-74
2022/01/18 00:56:18;;;;;;;30.95;19.63;;;5.90;99.90;;;;;;4932545;29;20232;-73
2022/01/18 00:59:04;;;;;;;34.60;20.60;;;5.90;99.90;;;;;;4934867;29;20707;-73
2022/01/18 01:01:50;;;;;;;47.75;20.65;;;5.90;99.90;;;;;;4933185;29;20249;-72
2022/01/18 01:04:40;;;;;;;35.47;22.05;;;5.80;99.90;;;;;;4928816;29;20208;-73
2022/01/18 01:07:25;;;;;;;34.20;22.17;;;5.80;99.90;;;;;;4931944;29;20253;-73
2022/01/18 01:10:11;;;;;;;34.50;21.80;;;5.70;99.90;;;;;;4934808;29;20492;-73
2022/01/18 01:12:58;;;;;;;29.52;20.40;;;5.80;99.90;;;;;;4933080;29;20464;-72
2022/01/18 01:16:01;;;;;;;31.17;20.58;;;5.80;99.90;;;;;;4929512;29;20342;-71
2022/01/18 01:19:03;;;;;;;36.25;21.17;;;5.80;99.90;;;;;;4931833;29;20189;-72
2022/01/18 01:34:35;;;;;;;33.88;21.58;;;5.80;99.90;;;;;;4930199;29;20277;-72
2022/01/18 01:43:29;;;;;;;32.40;20.88;;;5.70;99.90;;;;;;4928370;29;20196;-73
2022/01/18 01:46:17;;;;;;;39.88;22.50;;;5.70;99.90;;;;;;4933527;29;20238;-72
2022/01/18 01:49:06;;;;;;;35.97;21.77;;;5.80;99.90;;;;;;4934068;29;20221;-74
2022/01/18 01:51:52;;;;;;;41.05;22.77;;;5.70;99.90;;;;;;4932065;29;20285;-72
2022/01/18 01:54:38;;;;;;;34.03;21.52;;;5.70;99.90;;;;;;4929598;29;20205;-73
2022/01/18 01:57:24;;;;;;;33.30;20.52;;;5.80;99.90;;;;;;4929519;29;20204;-73
2022/01/18 02:00:15;;;;;;;32.50;22.05;;;5.80;99.90;;;;;;4933212;29;20575;-73
2022/01/18 02:03:01;;;;;;;36.15;20.92;;;5.80;99.90;;;;;;4929556;29;20200;-74
2022/01/18 02:05:47;;;;;;;29.00;20.87;;;5.80;99.90;;;;;;4934080;29;20228;-73
2022/01/18 02:08:32;;;;;;;32.40;18.97;;;5.80;99.90;;;;;;4934277;29;20484;-73
2022/01/18 02:11:18;;;;;;;28.85;18.88;;;5.80;99.90;;;;;;4921631;29;20434;-73
2022/01/18 02:14:07;;;;;;;43.00;22.23;;;5.80;99.90;;;;;;4928824;29;20288;-74
2022/01/18 02:23:08;;;;;;;42.20;21.63;;;5.70;99.90;;;;;;4931366;29;20244;-73
2022/01/18 02:25:54;;;;;;;33.27;21.00;;;5.70;99.90;;;;;;4932703;29;20232;-73
2022/01/18 02:28:40;;;;;;;30.50;19.75;;;5.60;99.90;;;;;;4933930;29;20480;-73
2022/01/18 02:31:25;;;;;;;32.58;20.33;;;5.60;99.90;;;;;;4929891;29;20253;-73
2022/01/18 02:34:14;;;;;;;35.60;22.02;;;5.60;99.90;;;;;;4933723;29;20212;-73
2022/01/18 02:37:03;;;;;;;32.28;20.60;;;5.60;99.90;;;;;;4932160;29;20530;-72
2022/01/18 02:39:49;;;;;;;31.40;21.02;;;5.60;99.90;;;;;;4931105;29;20193;-73
2022/01/18 02:42:44;;;;;;;33.50;22.23;;;5.60;99.90;;;;;;4931359;29;20217;-73
2022/01/18 02:45:30;;;;;;;36.40;21.55;;;5.50;99.90;;;;;;4930064;29;20321;-73
2022/01/18 02:48:15;;;;;;;32.13;21.00;;;5.50;99.90;;;;;;4933101;29;20213;-73
2022/01/18 02:51:01;;;;;;;38.45;20.10;;;5.60;99.90;;;;;;4928121;29;20453;-73
2022/01/18 02:53:57;;;;;;;35.65;21.15;;;5.70;99.90;;;;;;4929324;29;20286;-73
2022/01/18 02:56:47;;;;;;;37.40;21.73;;;5.70;99.90;;;;;;4929266;29;20221;-73
2022/01/18 02:59:42;;;;;;;34.57;21.30;;;5.70;99.90;;;;;;4931117;29;20655;-73
2022/01/18 03:05:32;;;;;;;38.90;22.23;;;5.70;99.90;;;;;;4933663;29;20645;-73
2022/01/18 03:08:18;;;;;;;33.78;21.63;;;5.70;99.90;;;;;;4931995;29;20284;-73
2022/01/18 03:11:05;;;;;;;31.27;18.17;;;5.70;99.90;;;;;;4930064;29;20254;-73
2022/01/18 03:13:51;;;;;;;39.58;22.55;;;5.60;99.90;;;;;;4931353;29;20457;-73
2022/01/18 03:16:37;;;;;;;31.13;19.85;;;5.60;99.90;;;;;;4931710;29;20235;-73
2022/01/18 03:19:22;;;;;;;34.53;22.37;;;5.50;99.90;;;;;;4925976;29;20201;-73
2022/01/18 03:22:08;;;;;;;37.38;20.35;;;5.60;99.90;;;;;;4925039;29;21011;-72
2022/01/18 03:25:01;;;;;;;32.80;19.30;;;5.60;99.90;;;;;;4930875;29;20694;-73
2022/01/18 03:28:06;;;;;;;29.27;19.92;;;5.60;99.90;;;;;;4928209;29;20694;-72
2022/01/18 03:30:54;;;;;;;35.58;20.60;;;5.60;99.90;;;;;;4926483;29;20228;-73
2022/01/18 03:33:40;;;;;;;36.40;21.38;;;5.70;99.90;;;;;;4933092;29;20791;-73
2022/01/18 03:36:26;;;;;;;33.13;19.65;;;5.50;99.90;;;;;;4932693;29;20750;-73
2022/01/18 03:39:11;;;;;;;36.33;21.52;;;5.50;99.90;;;;;;4931454;29;20581;-73
2022/01/18 03:42:17;;;;;;;38.20;21.45;;;5.50;99.90;;;;;;4928925;29;20758;-73
2022/01/18 03:45:06;;;;;;;35.55;20.85;;;5.50;99.90;;;;;;4933895;29;20680;-73
2022/01/18 03:47:54;;;;;;;33.78;22.00;;;5.50;99.90;;;;;;4932487;29;20346;-73
2022/01/18 03:50:40;;;;;;;39.05;24.90;;;5.50;99.90;;;;;;4929040;29;20731;-73
2022/01/18 03:53:26;;;;;;;38.45;22.50;;;5.50;99.90;;;;;;4930493;29;20209;-73
2022/01/18 03:56:11;;;;;;;35.72;21.08;;;5.50;99.90;;;;;;4933739;29;20276;-73
2022/01/18 03:58:57;;;;;;;34.53;22.60;;;5.50;99.90;;;;;;4932088;29;20565;-73
2022/01/18 04:01:44;;;;;;;34.50;21.10;;;5.50;99.90;;;;;;4927609;29;20681;-73
2022/01/18 04:04:29;;;;;;;36.88;23.77;;;5.60;99.90;;;;;;4937002;29;20205;-73
2022/01/18 04:07:15;;;;;;;36.53;23.20;;;5.50;99.90;;;;;;4933843;29;20232;-72
2022/01/18 04:10:01;;;;;;;37.83;22.02;;;5.40;99.90;;;;;;4933248;29;20339;-73
2022/01/18 04:12:47;;;;;;;36.38;21.30;;;5.40;99.90;;;;;;4934340;29;20217;-73
2022/01/18 04:15:34;;;;;;;38.75;23.88;;;5.30;99.90;;;;;;4936491;29;20287;-72
2022/01/18 04:18:29;;;;;;;34.88;20.98;;;5.40;99.90;;;;;;4927340;29;20209;-73
2022/01/18 04:27:39;;;;;;;34.83;22.25;;;5.40;99.90;;;;;;4936682;29;20617;-73
2022/01/18 04:30:25;;;;;;;39.92;22.20;;;5.50;99.90;;;;;;4929308;29;20307;-72
2022/01/18 04:33:11;;;;;;;36.45;22.40;;;5.50;99.90;;;;;;4935219;29;20261;-73
2022/01/18 04:35:59;;;;;;;35.42;21.40;;;5.50;99.90;;;;;;4934051;29;20233;-72
2022/01/18 04:38:44;;;;;;;33.90;20.83;;;5.50;99.90;;;;;;4932433;29;20244;-73
2022/01/18 04:41:31;;;;;;;37.53;21.20;;;5.40;99.90;;;;;;4931923;29;20201;-73
2022/01/18 04:50:25;;;;;;;35.70;20.67;;;5.40;99.90;;;;;;4923108;29;20345;-73
2022/01/18 04:53:13;;;;;;;31.95;19.92;;;5.50;99.90;;;;;;4931872;29;20252;-73
2022/01/18 04:56:03;;;;;;;32.87;21.60;;;5.40;99.90;;;;;;4932597;29;20709;-73
2022/01/18 04:58:48;;;;;;;34.15;20.77;;;5.40;99.90;;;;;;4935056;29;20577;-73
2022/01/18 05:01:35;;;;;;;34.28;20.95;;;5.50;99.90;;;;;;4930388;29;20204;-73
2022/01/18 05:04:21;;;;;;;32.10;20.77;;;5.60;99.90;;;;;;4935688;29;20256;-72
2022/01/18 05:07:09;;;;;;;31.92;19.58;;;5.60;99.90;;;;;;4933207;29;20357;-74
2022/01/18 05:09:56;;;;;;;36.47;21.23;;;5.60;99.90;;;;;;4926569;29;20376;-73
2022/01/18 05:12:46;;;;;;;34.00;20.40;;;5.60;99.90;;;;;;4933824;29;20310;-72
2022/01/18 05:15:42;;;;;;;33.15;19.73;;;5.60;99.90;;;;;;4935812;29;20365;-73
2022/01/18 05:21:35;;;;;;;37.58;21.15;;;5.40;99.90;;;;;;4933960;29;20591;-74
2022/01/18 05:24:21;;;;;;;48.67;22.13;;;5.40;99.90;;;;;;4927669;29;20204;-73
2022/01/18 05:27:08;;;;;;;31.33;20.60;;;5.40;99.90;;;;;;4933303;29;20228;-73
2022/01/18 05:29:54;;;;;;;34.55;21.52;;;5.50;99.90;;;;;;4931514;29;20233;-73
2022/01/18 05:32:40;;;;;;;28.52;19.70;;;5.50;99.90;;;;;;4932895;29;20275;-73
2022/01/18 05:35:26;;;;;;;28.48;18.83;;;5.50;99.90;;;;;;4933680;29;20273;-73
2022/01/18 05:38:12;;;;;;;36.70;21.10;;;5.40;99.90;;;;;;4933913;29;20209;-73
2022/01/18 05:40:58;;;;;;;39.53;22.77;;;5.40;99.90;;;;;;4926686;29;20686;-73
2022/01/18 05:43:45;;;;;;;38.30;21.30;;;5.30;99.90;;;;;;4934210;29;20680;-73
2022/01/18 05:46:30;;;;;;;32.58;20.63;;;5.30;99.90;;;;;;4927020;29;20707;-73
2022/01/18 05:49:16;;;;;;;32.05;20.02;;;5.30;99.90;;;;;;4931500;29;20686;-73
2022/01/18 05:52:01;;;;;;;31.55;19.35;;;5.30;99.90;;;;;;4934544;29;20573;-73
2022/01/18 05:54:47;;;;;;;39.53;21.70;;;5.40;99.90;;;;;;4934180;29;20216;-73
2022/01/18 05:57:33;;;;;;;31.42;19.90;;;5.50;99.90;;;;;;4934266;29;20421;-74
2022/01/18 06:00:22;;;;;;;38.72;21.25;;;5.60;99.90;;;;;;4928619;29;20341;-73
2022/01/18 06:03:14;;;;;;;35.20;20.77;;;5.60;99.90;;;;;;4933058;29;20292;-73
2022/01/18 06:09:04;;;;;;;32.87;19.60;;;5.40;99.90;;;;;;4926571;29;20222;-73
2022/01/18 06:11:50;;;;;;;31.25;19.30;;;5.40;99.90;;;;;;4933374;29;20448;-72
2022/01/18 06:14:36;;;;;;;31.35;20.10;;;5.50;99.90;;;;;;4933750;29;20571;-73
2022/01/18 06:17:23;;;;;;;39.70;19.27;;;5.40;99.90;;;;;;4931130;29;20213;-73
2022/01/18 06:20:10;;;;;;;34.70;19.70;;;5.40;99.90;;;;;;4928729;29;20449;-73
2022/01/18 06:22:55;;;;;;;73.90;40.53;;;5.40;99.90;;;;;;4929121;29;20216;-73
2022/01/18 06:25:41;;;;;;;70.43;40.72;;;5.40;99.90;;;;;;4934108;29;20229;-73
2022/01/18 06:28:27;;;;;;;49.15;29.95;;;5.40;99.90;;;;;;4928229;29;20681;-72
2022/01/18 06:31:13;;;;;;;38.33;23.55;;;5.50;99.90;;;;;;4931368;29;20593;-72
2022/01/18 06:34:00;;;;;;;53.08;31.35;;;5.50;99.90;;;;;;4934018;29;20212;-73
2022/01/18 06:36:46;;;;;;;37.83;22.92;;;5.50;99.90;;;;;;4932467;29;20224;-73
2022/01/18 06:39:32;;;;;;;34.65;20.20;;;5.40;99.90;;;;;;4925080;29;20204;-73
2022/01/18 06:42:17;;;;;;;31.48;19.73;;;5.40;99.90;;;;;;4929162;29;20572;-73
2022/01/18 06:45:03;;;;;;;51.90;26.38;;;5.40;99.90;;;;;;4933235;29;20225;-73
2022/01/18 06:47:48;;;;;;;37.97;21.77;;;5.40;99.90;;;;;;4929628;29;20212;-73
2022/01/18 06:50:35;;;;;;;27.98;18.60;;;5.40;99.90;;;;;;4926602;29;20228;-72
2022/01/18 06:53:21;;;;;;;38.22;21.70;;;5.40;99.90;;;;;;4932461;29;20258;-73
2022/01/18 06:56:07;;;;;;;32.50;20.02;;;5.40;99.90;;;;;;4932097;29;20235;-73
2022/01/18 06:58:54;;;;;;;30.60;17.75;;;5.40;99.90;;;;;;4927311;29;20212;-73
2022/01/18 07:01:39;;;;;;;36.53;22.05;;;5.40;99.90;;;;;;4932850;29;20325;-73
2022/01/18 07:04:25;;;;;;;31.60;19.00;;;5.40;99.90;;;;;;4933017;29;20212;-73
2022/01/18 07:07:12;;;;;;;37.13;22.70;;;5.50;99.90;;;;;;4929543;29;20481;-73
2022/01/18 07:09:58;;;;;;;30.15;19.40;;;5.40;99.90;;;;;;4931005;29;20219;-72
2022/01/18 07:12:44;;;;;;;34.90;20.15;;;5.50;99.90;;;;;;4934279;29;20204;-73
2022/01/18 07:15:30;;;;;;;30.37;18.53;;;5.60;99.90;;;;;;4921659;29;20235;-72
2022/01/18 07:18:16;;;;;;;35.28;20.00;;;5.60;99.90;;;;;;4929881;29;20448;-72
2022/01/18 07:21:01;;;;;;;32.97;20.08;;;5.60;99.90;;;;;;4932014;29;20209;-73
2022/01/18 07:23:50;;;;;;;28.65;17.77;;;5.50;99.90;;;;;;4932394;29;20325;-73
2022/01/18 07:26:36;;;;;;;39.20;21.60;;;5.50;99.90;;;;;;4931656;29;20733;-73
2022/01/18 07:29:22;;;;;;;31.77;19.00;;;5.40;99.90;;;;;;4930459;29;20633;-73
2022/01/18 07:32:09;;;;;;;36.15;19.75;;;5.40;99.90;;;;;;4930915;29;20209;-72
2022/01/18 07:34:56;;;;;;;36.40;19.90;;;5.50;99.90;;;;;;4929980;29;20631;-73
2022/01/18 07:37:41;;;;;;;31.90;18.45;;;5.50;99.90;;;;;;4924055;29;20209;-73
2022/01/18 07:40:30;;;;;;;31.35;19.05;;;5.50;99.90;;;;;;4934905;29;20220;-73
2022/01/18 07:43:18;;;;;;;32.22;18.20;;;5.50;99.90;;;;;;4920616;29;20573;-72
2022/01/18 07:46:04;;;;;;;28.98;18.98;;;5.40;99.90;;;;;;4929707;29;20635;-72
2022/01/18 07:48:50;;;;;;;42.67;18.98;;;5.40;99.90;;;;;;4925802;29;20252;-72
2022/01/18 07:51:35;;;;;;;38.85;19.98;;;5.40;99.90;;;;;;4931200;29;20632;-72
2022/01/18 07:54:21;;;;;;;34.22;20.67;;;5.40;99.90;;;;;;4928563;29;20577;-72
2022/01/18 07:57:08;;;;;;;35.35;20.30;;;5.40;99.90;;;;;;4932959;29;20228;-72
2022/01/18 07:59:53;;;;;;;34.50;20.65;;;5.40;99.90;;;;;;4936087;29;20204;-72
2022/01/18 08:02:39;;;;;;;38.97;21.52;;;5.40;99.90;;;;;;4936439;29;20663;-72
2022/01/18 08:05:25;;;;;;;42.33;24.30;;;5.40;99.90;;;;;;4935099;29;20589;-72
2022/01/18 08:08:12;;;;;;;38.15;22.92;;;5.50;99.90;;;;;;4933507;29;20570;-73
2022/01/18 08:10:57;;;;;;;41.92;21.75;;;5.50;99.90;;;;;;4934883;29;20264;-72
2022/01/18 08:13:48;;;;;;;35.35;20.50;;;5.50;99.90;;;;;;4932841;29;20589;-72
2022/01/18 08:16:48;;;;;;;34.95;20.55;;;5.60;99.90;;;;;;4919402;29;20237;-72
2022/01/18 08:19:36;;;;;;;35.53;21.17;;;5.70;99.90;;;;;;4932103;29;20201;-72
2022/01/18 08:22:22;;;;;;;40.13;22.70;;;5.70;99.90;;;;;;4930076;29;20204;-72
2022/01/18 08:25:09;;;;;;;39.13;22.60;;;5.70;99.90;;;;;;4935131;29;20208;-72
2022/01/18 08:27:55;;;;;;;37.25;21.92;;;5.80;99.90;;;;;;4928612;29;20228;-72
2022/01/18 08:30:41;;;;;;;37.85;22.20;;;5.80;99.90;;;;;;4933826;29;20305;-72
2022/01/18 08:33:28;;;;;;;69.07;35.58;;;5.80;99.90;;;;;;4931771;29;20229;-72
2022/01/18 08:36:13;;;;;;;60.35;31.70;;;5.80;99.90;;;;;;4931835;29;20317;-72
2022/01/18 08:39:00;;;;;;;67.77;32.33;;;5.90;99.90;;;;;;4933855;29;20275;-72
2022/01/18 08:41:46;;;;;;;69.15;35.95;;;6.00;99.90;;;;;;4935634;29;20471;-73
2022/01/18 08:44:32;;;;;;;47.47;27.20;;;6.00;99.90;;;;;;4930689;29;20208;-72
2022/01/18 08:47:19;;;;;;;42.53;25.55;;;6.00;99.90;;;;;;4932457;29;20224;-72
2022/01/18 08:50:06;;;;;;;42.97;26.00;;;6.10;99.90;;;;;;4936161;29;20208;-72
2022/01/18 08:52:52;;;;;;;39.25;24.08;;;6.10;99.90;;;;;;4935998;29;20441;-72
2022/01/18 08:55:38;;;;;;;40.40;25.17;;;6.20;99.90;;;;;;4930824;29;20233;-73
2022/01/18 08:58:23;;;;;;;39.90;24.17;;;6.30;99.90;;;;;;4928170;29;20205;-72
2022/01/18 09:01:09;;;;;;;37.63;23.20;;;6.40;99.90;;;;;;4936086;29;20661;-73
2022/01/18 09:03:56;;;;;;;77.00;31.08;;;6.40;99.90;;;;;;4935653;29;20550;-72
2022/01/18 09:06:43;;;;;;;43.35;25.40;;;6.40;99.90;;;;;;4931975;29;20594;-72
2022/01/18 09:09:29;;;;;;;41.85;25.27;;;6.40;99.90;;;;;;4933004;29;20252;-73
2022/01/18 09:12:17;;;;;;;37.15;23.75;;;6.50;99.90;;;;;;4935021;29;20715;-72
2022/01/18 09:15:05;;;;;;;42.17;25.40;;;6.50;99.90;;;;;;4931930;29;20209;-73
2022/01/18 09:17:51;;;;;;;41.00;23.35;;;6.50;99.90;;;;;;4928126;29;21013;-72
2022/01/18 09:20:39;;;;;;;40.40;23.90;;;6.60;99.90;;;;;;4933237;29;20281;-72
2022/01/18 09:23:24;;;;;;;46.57;28.50;;;6.70;99.90;;;;;;4928108;29;20421;-72
2022/01/18 09:26:13;;;;;;;48.43;25.73;;;6.70;99.90;;;;;;4932623;29;20795;-72
2022/01/18 09:28:58;;;;;;;42.07;24.60;;;6.70;99.90;;;;;;4934410;29;20447;-73
2022/01/18 09:31:44;;;;;;;40.43;26.37;;;6.80;99.90;;;;;;4934369;29;20479;-73
2022/01/18 09:34:29;;;;;;;43.47;23.27;;;6.90;99.90;;;;;;4932388;29;20972;-72
2022/01/18 09:37:17;;;;;;;48.70;28.00;;;6.90;99.90;;;;;;4934066;29;20532;-72
2022/01/18 09:40:03;;;;;;;40.70;27.27;;;7.00;99.90;;;;;;4934358;29;20407;-73
2022/01/18 09:42:53;;;;;;;41.20;25.43;;;7.00;99.90;;;;;;4931900;29;20482;-72
2022/01/18 09:45:41;;;;;;;42.07;25.93;;;7.10;99.90;;;;;;4931790;29;20455;-72
2022/01/18 09:48:27;;;;;;;37.50;22.93;;;7.20;99.90;;;;;;4926549;29;20537;-72
2022/01/18 09:51:13;;;;;;;32.13;21.97;;;7.20;99.90;;;;;;4933638;29;21141;-72
2022/01/18 09:54:00;;;;;;;35.90;22.63;;;7.20;99.90;;;;;;4933274;29;21070;-72
2022/01/18 09:56:46;;;;;;;36.70;22.50;;;7.20;99.90;;;;;;4932786;29;20552;-72
2022/01/18 09:59:32;;;;;;;38.03;22.63;;;7.30;99.90;;;;;;4931911;29;20452;-72
2022/01/18 10:02:19;;;;;;;36.60;20.55;;;7.30;99.90;;;;;;4934841;29;20641;-72
2022/01/18 10:05:19;;;;;;;31.95;21.15;;;7.30;99.90;;;;;;4931317;29;20205;-72
2022/01/18 10:08:07;;;;;;;37.70;21.43;;;7.30;99.90;;;;;;4931247;29;20205;-72
2022/01/18 10:10:57;;;;;;;34.83;20.80;;;7.40;99.90;;;;;;4933649;29;20472;-73
2022/01/18 10:13:45;;;;;;;32.37;19.00;;;7.40;99.90;;;;;;4934000;29;20523;-72
2022/01/18 10:16:32;;;;;;;31.27;19.17;;;7.40;99.90;;;;;;4934273;29;20507;-72
2022/01/18 10:19:30;;;;;;;29.30;16.67;;;7.40;99.90;;;;;;4932264;29;20441;-72
2022/01/18 10:22:20;;;;;;;27.63;15.63;;;7.50;99.90;;;;;;4933918;29;20428;-73
2022/01/18 10:25:14;;;;;;;28.73;15.43;;;7.60;99.90;;;;;;4931646;29;20945;-72
2022/01/18 10:28:01;;;;;;;24.97;15.93;;;7.60;99.90;;;;;;4933676;29;20807;-72
2022/01/18 10:30:49;;;;;;;23.60;14.27;;;7.60;99.90;;;;;;4932911;29;20476;-73
2022/01/18 10:33:46;;;;;;;22.70;12.60;;;7.70;99.90;;;;;;4926932;29;20420;-73
2022/01/18 10:36:32;;;;;;;20.97;13.50;;;7.70;99.90;;;;;;4927933;29;20586;-72
2022/01/18 10:39:21;;;;;;;20.90;12.70;;;7.80;99.90;;;;;;4932052;29;20456;-73
2022/01/18 10:42:19;;;;;;;25.40;12.50;;;7.90;99.90;;;;;;4933709;29;20445;-73
2022/01/18 10:45:09;;;;;;;21.63;13.50;;;7.90;99.90;;;;;;4931507;29;20448;-72
2022/01/18 10:47:57;;;;;;;13.80;8.23;;;7.90;99.90;;;;;;4930108;29;20521;-73
2022/01/18 10:50:44;;;;;;;14.30;9.20;;;7.90;99.90;;;;;;4931261;29;20453;-73
2022/01/18 10:53:30;;;;;;;11.93;7.37;;;7.90;99.90;;;;;;4916777;29;20483;-70
2022/01/18 10:56:17;;;;;;;15.77;6.90;;;7.80;99.90;;;;;;4933919;29;21034;-72
2022/01/18 10:59:03;;;;;;;17.27;8.50;;;7.80;99.90;;;;;;4931959;29;20499;-70
2022/01/18 11:04:45;;;;;;;16.10;8.93;;;7.80;99.90;;;;;;5075656;27;21196;-70
2022/01/18 11:07:31;;;;;;;14.57;8.50;;;7.70;99.90;;;;;;5047873;28;20424;-70
2022/01/18 11:10:21;;;;;;;13.00;9.93;;;7.70;99.90;;;;;;5046534;28;20972;-70
2022/01/18 11:13:11;;;;;;;14.63;9.90;;;7.70;99.90;;;;;;5046349;28;20534;-70
2022/01/18 11:16:04;;;;;;;16.50;9.37;;;7.70;99.90;;;;;;5028800;28;20447;-70
2022/01/18 11:18:49;;;;;;;16.03;8.70;;;7.70;99.90;;;;;;5028494;28;20503;-70
2022/01/18 11:21:37;;;;;;;22.17;10.17;;;7.80;99.90;;;;;;5047762;28;20438;-70
2022/01/18 11:24:23;;;;;;;12.50;6.13;;;7.90;99.90;;;;;;5045340;28;21079;-70
2022/01/18 11:27:13;;;;;;;8.07;5.20;;;7.90;99.90;;;;;;5046898;28;20479;-69
2022/01/18 11:29:59;;;;;;;8.20;4.70;;;8.00;99.90;;;;;;5048964;28;20416;-70
2022/01/18 11:32:45;;;;;;;8.90;5.20;;;8.00;99.90;;;;;;5045708;28;20386;-69
2022/01/18 11:35:39;;;;;;;11.23;6.50;;;8.00;99.90;;;;;;5046270;28;20612;-70
2022/01/18 11:38:36;;;;;;;10.43;6.07;;;8.10;99.90;;;;;;5047782;28;20411;-69
2022/01/18 11:41:23;;;;;;;11.07;4.37;;;8.20;99.90;;;;;;5047283;28;20422;-70
2022/01/18 11:44:15;;;;;;;5.80;2.30;;;8.10;99.90;;;;;;5044162;28;20472;-70
2022/01/18 11:47:03;;;;;;;7.50;2.70;;;8.10;99.90;;;;;;5044344;28;20514;-69
2022/01/18 11:49:51;;;;;;;5.70;2.63;;;8.00;99.90;;;;;;5047208;28;20562;-70
2022/01/18 11:52:47;;;;;;;3.93;1.80;;;8.00;99.90;;;;;;5038043;28;20451;-69
2022/01/18 11:55:40;;;;;;;3.33;1.80;;;7.90;99.90;;;;;;5044912;28;20842;-70
2022/01/18 11:58:27;;;;;;;3.80;2.03;;;7.80;99.90;;;;;;5040349;28;20434;-70
2022/01/18 12:01:13;;;;;;;3.10;2.03;;;7.90;99.90;;;;;;5041606;28;20598;-70
2022/01/18 12:03:59;;;;;;;7.30;2.70;;;7.90;99.90;;;;;;5046165;28;20446;-70
2022/01/18 12:06:45;;;;;;;3.67;2.67;;;7.80;99.90;;;;;;5047316;28;20447;-70
2022/01/18 12:09:38;;;;;;;6.23;3.60;;;7.90;99.90;;;;;;5047875;28;20922;-70
2022/01/18 12:12:52;;;;;;;3.43;2.20;;;7.90;99.90;;;;;;5045273;28;20460;-70
2022/01/18 12:15:50;;;;;;;3.40;1.67;;;8.00;99.90;;;;;;5035487;28;20468;-70
2022/01/18 12:18:49;;;;;;;6.33;2.83;;;8.00;99.90;;;;;;5033619;28;20789;-70
2022/01/18 12:21:43;;;;;;;7.00;3.00;;;8.00;99.90;;;;;;5034331;28;20420;-70
2022/01/18 12:24:29;;;;;;;3.37;2.40;;;8.00;99.90;;;;;;5032073;28;20599;-70
2022/01/18 12:27:35;;;;;;;3.10;1.83;;;8.00;99.90;;;;;;5031937;28;20460;-70
2022/01/18 12:30:40;;;;;;;7.07;2.40;;;8.00;99.90;;;;;;5014167;28;20510;-70
2022/01/18 12:33:26;;;;;;;3.00;1.60;;;8.10;99.90;;;;;;5028944;28;20927;-70
2022/01/18 12:36:29;;;;;;;4.43;2.23;;;8.30;99.90;;;;;;5031091;28;20479;-70
2022/01/18 12:39:15;;;;;;;2.90;1.40;;;8.50;99.90;;;;;;5033470;28;20395;-70
2022/01/18 12:42:01;;;;;;;2.00;1.27;;;8.60;99.90;;;;;;5028916;28;20444;-70
2022/01/18 12:44:46;;;;;;;1.93;1.23;;;8.90;99.90;;;;;;5013970;28;20435;-70
2022/01/18 12:47:35;;;;;;;2.57;1.37;;;9.20;99.90;;;;;;5029678;28;20448;-70
2022/01/18 12:50:22;;;;;;;2.17;1.10;;;9.30;99.90;;;;;;5034034;28;20432;-70
2022/01/18 12:53:09;;;;;;;2.90;1.20;;;9.50;99.90;;;;;;5031277;28;20966;-70
2022/01/18 12:55:57;;;;;;;2.03;1.30;;;9.50;99.90;;;;;;5028889;28;20586;-70
2022/01/18 12:58:48;;;;;;;1.97;0.90;;;9.30;99.90;;;;;;5021858;28;20430;-70
2022/01/18 13:01:35;;;;;;;1.93;1.07;;;9.20;99.90;;;;;;5034415;28;20473;-70
2022/01/18 13:04:27;;;;;;;3.23;1.00;;;9.30;99.90;;;;;;5029836;28;20806;-70
2022/01/18 13:07:13;;;;;;;1.70;0.90;;;9.60;99.90;;;;;;5026805;28;20451;-70
2022/01/18 13:10:01;;;;;;;2.53;1.50;;;9.60;99.90;;;;;;5030112;28;20482;-70
2022/01/18 13:12:47;;;;;;;2.60;1.00;;;9.50;99.90;;;;;;5026322;28;20486;-70
2022/01/18 13:15:49;;;;;;;4.20;1.30;;;9.40;99.90;;;;;;5028493;28;20441;-70
2022/01/18 13:28:02;;;;;;;3.00;1.60;;;8.80;99.90;;;;;;5027293;28;20471;-70
2022/01/18 13:30:49;;;;;;;2.40;1.30;;;8.60;99.90;;;;;;5028589;28;20626;-70
2022/01/18 13:33:49;;;;;;;2.53;1.40;;;8.60;99.90;;;;;;5026040;28;20391;-70
2022/01/18 13:36:50;;;;;;;3.27;1.77;;;8.50;99.90;;;;;;5023994;28;20542;-71
2022/01/18 13:39:44;;;;;;;5.60;1.33;;;8.40;99.90;;;;;;5026288;28;21000;-70
2022/01/18 13:42:35;;;;;;;2.30;1.50;;;8.40;99.90;;;;;;5026249;28;20814;-71
2022/01/18 13:45:24;;;;;;;2.63;1.37;;;8.20;99.90;;;;;;5023886;28;20454;-71
2022/01/18 13:48:12;;;;;;;2.87;1.70;;;8.30;99.90;;;;;;5032727;28;20421;-71
2022/01/18 13:50:58;;;;;;;6.10;2.17;;;8.30;99.90;;;;;;5026303;28;20440;-72
2022/01/18 13:53:45;;;;;;;5.40;1.70;;;8.30;99.90;;;;;;5029456;28;20444;-72
2022/01/18 13:56:31;;;;;;;3.50;1.90;;;8.30;99.90;;;;;;5032572;28;20445;-72
2022/01/18 13:59:18;;;;;;;6.97;2.50;;;8.20;99.90;;;;;;5027591;28;20448;-72
2022/01/18 14:02:14;;;;;;;4.47;3.05;;;8.20;99.90;;;;;;5019562;28;20440;-72
2022/01/18 14:05:11;;;;;;;2.50;1.67;;;8.10;99.90;;;;;;5030995;28;20596;-72
2022/01/18 14:08:06;;;;;;;3.20;1.83;;;8.10;99.90;;;;;;5032879;28;20417;-72
2022/01/18 14:11:02;;;;;;;2.90;2.10;;;8.00;99.90;;;;;;5030661;28;20466;-72
2022/01/18 14:13:48;;;;;;;4.87;2.60;;;8.00;99.90;;;;;;5030438;28;20466;-72
2022/01/18 14:16:36;;;;;;;3.80;1.50;;;8.00;99.90;;;;;;5032174;28;20451;-72
2022/01/18 14:19:27;;;;;;;2.87;1.50;;;8.00;99.90;;;;;;5032275;28;20412;-72
2022/01/18 14:22:14;;;;;;;2.67;1.23;;;8.00;99.90;;;;;;5028918;28;20535;-73
2022/01/18 14:25:04;;;;;;;3.40;1.60;;;8.00;99.90;;;;;;5032458;28;20450;-72
2022/01/18 14:27:51;;;;;;;2.20;1.50;;;7.90;99.90;;;;;;5032015;28;20321;-72
2022/01/18 14:30:37;;;;;;;2.50;1.67;;;7.90;99.90;;;;;;5024582;28;20225;-72
2022/01/18 14:33:23;;;;;;;2.43;1.60;;;8.00;99.90;;;;;;5017824;28;20552;-72
2022/01/18 14:36:15;;;;;;;3.23;2.00;;;8.00;99.90;;;;;;5031839;28;20587;-72
2022/01/18 14:39:09;;;;;;;2.77;1.70;;;8.00;99.90;;;;;;5031234;28;20409;-72
2022/01/18 14:41:59;;;;;;;2.73;1.23;;;8.00;99.90;;;;;;5030146;28;20486;-72
2022/01/18 14:45:02;;;;;;;3.70;1.63;;;8.10;99.90;;;;;;5030111;28;20464;-72
2022/01/18 14:47:48;;;;;;;3.40;1.90;;;8.00;99.90;;;;;;5031778;28;20758;-72
2022/01/18 14:50:34;;;;;;;4.10;2.60;;;8.00;99.90;;;;;;5029209;28;20455;-72
2022/01/18 14:53:20;;;;;;;3.70;2.60;;;8.00;99.90;;;;;;5032033;28;20827;-72
2022/01/18 14:56:06;;;;;;;5.80;2.60;;;8.00;99.90;;;;;;5031721;28;20229;-72
2022/01/18 14:58:53;;;;;;;5.67;3.20;;;8.00;99.90;;;;;;5029311;28;20452;-72
2022/01/18 15:01:41;;;;;;;6.30;2.50;;;8.00;99.90;;;;;;5027890;28;20448;-72
2022/01/18 15:04:26;;;;;;;3.60;2.37;;;7.90;99.90;;;;;;5031254;28;20464;-72
2022/01/18 15:07:12;;;;;;;3.17;1.77;;;7.90;99.90;;;;;;5031366;28;20448;-72
2022/01/18 15:09:58;;;;;;;2.57;1.77;;;7.90;99.90;;;;;;5029052;28;20826;-72
2022/01/18 15:12:45;;;;;;;5.30;1.70;;;7.80;99.90;;;;;;5011876;28;20429;-72
2022/01/18 15:15:30;;;;;;;3.07;1.33;;;7.70;99.90;;;;;;5028982;28;20487;-72
2022/01/18 15:18:17;;;;;;;3.23;1.80;;;7.70;99.90;;;;;;5031245;28;20401;-72
2022/01/18 15:21:03;;;;;;;5.57;2.30;;;7.70;99.90;;;;;;5028224;28;20459;-72
2022/01/18 15:23:48;;;;;;;4.10;2.00;;;7.70;99.90;;;;;;5025734;28;20472;-72
2022/01/18 15:26:34;;;;;;;3.87;1.90;;;7.70;99.90;;;;;;5011610;28;20973;-72
2022/01/18 15:29:19;;;;;;;4.27;2.67;;;7.70;99.90;;;;;;5013451;28;20874;-72
2022/01/18 15:32:05;;;;;;;9.27;3.60;;;7.70;99.90;;;;;;5027028;28;20448;-71